sensor_id;sensor_type;location;lat;lon;timestamp;P1;durP1;ratioP1;P2;durP2;ratioP2
16393;SDS011;8306;51.128;4.476;2022-08-18T00:01:00;1266.63;;;999.73;;
16393;SDS011;8306;51.128;4.476;2022-08-18T00:03:27;1039.70;;;926.93;;
16393;SDS011;8306;51.128;4.476;2022-08-18T00:05:53;1332.60;;;999.90;;
16393;SDS011;8306;51.128;4.476;2022-08-18T00:08:20;1139.23;;;948.53;;
16393;SDS011;8306;51.128;4.476;2022-08-18T00:10:46;1372.10;;;999.90;;
16393;SDS011;8306;51.128;4.476;2022-08-18T00:13:13;1411.70;;;999.90;;
16393;SDS011;8306;51.128;4.476;2022-08-18T00:15:39;1252.67;;;999.90;;
16393;SDS011;8306;51.128;4.476;2022-08-18T00:18:06;1144.20;;;952.70;;
16393;SDS011;8306;51.128;4.476;2022-08-18T00:20:32;1452.23;;;999.90;;
16393;SDS011;8306;51.128;4.476;2022-08-18T00:22:59;1249.43;;;991.53;;
16393;SDS011;8306;51.128;4.476;2022-08-18T00:25:25;1279.43;;;997.23;;
16393;SDS011;8306;51.128;4.476;2022-08-18T00:27:52;1329.50;;;984.80;;
16393;SDS011;8306;51.128;4.476;2022-08-18T00:30:19;1324.00;;;997.50;;
16393;SDS011;8306;51.128;4.476;2022-08-18T00:32:51;1360.10;;;999.83;;
16393;SDS011;8306;51.128;4.476;2022-08-18T00:35:18;1292.07;;;981.97;;
16393;SDS011;8306;51.128;4.476;2022-08-18T00:37:41;1419.57;;;999.90;;
16393;SDS011;8306;51.128;4.476;2022-08-18T00:40:08;1249.87;;;990.63;;
16393;SDS011;8306;51.128;4.476;2022-08-18T00:42:36;1274.27;;;999.90;;
16393;SDS011;8306;51.128;4.476;2022-08-18T00:45:01;1208.43;;;967.57;;
16393;SDS011;8306;51.128;4.476;2022-08-18T00:47:27;1197.93;;;980.43;;
16393;SDS011;8306;51.128;4.476;2022-08-18T00:49:53;1310.67;;;999.90;;
16393;SDS011;8306;51.128;4.476;2022-08-18T00:52:20;985.30;;;875.37;;
16393;SDS011;8306;51.128;4.476;2022-08-18T00:54:46;1282.30;;;999.13;;
16393;SDS011;8306;51.128;4.476;2022-08-18T00:57:13;1071.70;;;921.83;;
16393;SDS011;8306;51.128;4.476;2022-08-18T00:59:47;1086.60;;;925.50;;
16393;SDS011;8306;51.128;4.476;2022-08-18T01:02:13;1108.97;;;937.53;;
16393;SDS011;8306;51.128;4.476;2022-08-18T01:04:41;956.33;;;860.53;;
16393;SDS011;8306;51.128;4.476;2022-08-18T01:07:09;1014.00;;;902.53;;
16393;SDS011;8306;51.128;4.476;2022-08-18T01:09:36;1308.77;;;998.63;;
16393;SDS011;8306;51.128;4.476;2022-08-18T01:12:03;1073.77;;;920.13;;
16393;SDS011;8306;51.128;4.476;2022-08-18T01:14:29;1177.80;;;980.67;;
16393;SDS011;8306;51.128;4.476;2022-08-18T01:16:56;1053.63;;;927.47;;
16393;SDS011;8306;51.128;4.476;2022-08-18T01:19:40;1020.83;;;900.50;;
16393;SDS011;8306;51.128;4.476;2022-08-18T01:22:36;991.33;;;884.83;;
16393;SDS011;8306;51.128;4.476;2022-08-18T01:25:04;1039.30;;;901.10;;
16393;SDS011;8306;51.128;4.476;2022-08-18T01:27:48;1034.43;;;916.83;;
16393;SDS011;8306;51.128;4.476;2022-08-18T01:30:15;1069.57;;;941.67;;
16393;SDS011;8306;51.128;4.476;2022-08-18T01:32:41;1074.23;;;923.50;;
16393;SDS011;8306;51.128;4.476;2022-08-18T01:35:08;1075.53;;;927.67;;
16393;SDS011;8306;51.128;4.476;2022-08-18T01:37:34;938.27;;;839.40;;
16393;SDS011;8306;51.128;4.476;2022-08-18T01:40:00;1130.97;;;928.70;;
16393;SDS011;8306;51.128;4.476;2022-08-18T01:42:27;1091.20;;;916.27;;
16393;SDS011;8306;51.128;4.476;2022-08-18T01:44:53;1133.30;;;953.20;;
16393;SDS011;8306;51.128;4.476;2022-08-18T01:47:20;1167.67;;;949.70;;
16393;SDS011;8306;51.128;4.476;2022-08-18T01:49:46;1020.13;;;903.77;;
16393;SDS011;8306;51.128;4.476;2022-08-18T01:52:14;1210.23;;;971.00;;
16393;SDS011;8306;51.128;4.476;2022-08-18T01:54:39;1051.33;;;935.83;;
16393;SDS011;8306;51.128;4.476;2022-08-18T01:57:06;1010.60;;;902.17;;
16393;SDS011;8306;51.128;4.476;2022-08-18T01:59:32;975.37;;;871.33;;
16393;SDS011;8306;51.128;4.476;2022-08-18T02:01:59;975.67;;;869.53;;
16393;SDS011;8306;51.128;4.476;2022-08-18T02:04:27;973.10;;;869.40;;
16393;SDS011;8306;51.128;4.476;2022-08-18T02:06:52;850.13;;;763.13;;
16393;SDS011;8306;51.128;4.476;2022-08-18T02:09:18;1015.30;;;866.87;;
16393;SDS011;8306;51.128;4.476;2022-08-18T02:11:45;997.63;;;888.60;;
16393;SDS011;8306;51.128;4.476;2022-08-18T02:14:11;1038.90;;;910.43;;
16393;SDS011;8306;51.128;4.476;2022-08-18T02:16:38;1007.27;;;885.27;;
16393;SDS011;8306;51.128;4.476;2022-08-18T02:19:04;949.07;;;845.63;;
16393;SDS011;8306;51.128;4.476;2022-08-18T02:21:31;1061.17;;;916.47;;
16393;SDS011;8306;51.128;4.476;2022-08-18T02:23:57;1028.37;;;916.47;;
16393;SDS011;8306;51.128;4.476;2022-08-18T02:26:24;1032.33;;;919.23;;
16393;SDS011;8306;51.128;4.476;2022-08-18T02:28:50;1042.13;;;901.63;;
16393;SDS011;8306;51.128;4.476;2022-08-18T02:31:18;1020.67;;;906.80;;
16393;SDS011;8306;51.128;4.476;2022-08-18T02:33:44;1016.13;;;884.90;;
16393;SDS011;8306;51.128;4.476;2022-08-18T02:36:10;1054.83;;;927.40;;
16393;SDS011;8306;51.128;4.476;2022-08-18T02:38:36;1058.13;;;923.97;;
16393;SDS011;8306;51.128;4.476;2022-08-18T02:41:04;1003.33;;;893.30;;
16393;SDS011;8306;51.128;4.476;2022-08-18T02:43:29;1057.40;;;917.60;;
16393;SDS011;8306;51.128;4.476;2022-08-18T02:45:56;1008.10;;;890.33;;
16393;SDS011;8306;51.128;4.476;2022-08-18T02:48:22;1143.80;;;951.30;;
16393;SDS011;8306;51.128;4.476;2022-08-18T02:53:27;1059.70;;;893.00;;
16393;SDS011;8306;51.128;4.476;2022-08-18T02:55:54;1002.60;;;892.60;;
16393;SDS011;8306;51.128;4.476;2022-08-18T02:58:20;1135.53;;;934.23;;
16393;SDS011;8306;51.128;4.476;2022-08-18T03:00:46;972.50;;;866.40;;
16393;SDS011;8306;51.128;4.476;2022-08-18T03:03:13;934.63;;;836.20;;
16393;SDS011;8306;51.128;4.476;2022-08-18T03:05:39;1104.43;;;928.80;;
16393;SDS011;8306;51.128;4.476;2022-08-18T03:08:06;968.87;;;868.70;;
16393;SDS011;8306;51.128;4.476;2022-08-18T03:10:32;1051.30;;;922.57;;
16393;SDS011;8306;51.128;4.476;2022-08-18T03:12:59;1057.20;;;880.10;;
16393;SDS011;8306;51.128;4.476;2022-08-18T03:15:25;1156.70;;;923.47;;
16393;SDS011;8306;51.128;4.476;2022-08-18T03:17:52;937.87;;;835.20;;
16393;SDS011;8306;51.128;4.476;2022-08-18T03:20:19;1070.87;;;905.37;;
16393;SDS011;8306;51.128;4.476;2022-08-18T03:22:45;980.93;;;873.60;;
16393;SDS011;8306;51.128;4.476;2022-08-18T03:25:12;956.63;;;852.50;;
16393;SDS011;8306;51.128;4.476;2022-08-18T03:27:38;1018.30;;;889.67;;
16393;SDS011;8306;51.128;4.476;2022-08-18T03:30:05;1051.93;;;897.97;;
16393;SDS011;8306;51.128;4.476;2022-08-18T03:32:31;1173.73;;;976.67;;
16393;SDS011;8306;51.128;4.476;2022-08-18T03:34:58;1057.63;;;908.93;;
16393;SDS011;8306;51.128;4.476;2022-08-18T03:37:24;1080.90;;;939.07;;
16393;SDS011;8306;51.128;4.476;2022-08-18T03:39:51;1032.83;;;887.83;;
16393;SDS011;8306;51.128;4.476;2022-08-18T03:42:17;948.40;;;848.47;;
16393;SDS011;8306;51.128;4.476;2022-08-18T03:44:44;1032.33;;;883.10;;
16393;SDS011;8306;51.128;4.476;2022-08-18T03:47:10;1037.53;;;897.53;;
16393;SDS011;8306;51.128;4.476;2022-08-18T03:49:37;884.77;;;798.10;;
16393;SDS011;8306;51.128;4.476;2022-08-18T03:52:06;809.60;;;734.03;;
16393;SDS011;8306;51.128;4.476;2022-08-18T03:54:30;1018.47;;;906.03;;
16393;SDS011;8306;51.128;4.476;2022-08-18T03:56:56;925.77;;;823.67;;
16393;SDS011;8306;51.128;4.476;2022-08-18T03:59:23;1030.57;;;896.10;;
16393;SDS011;8306;51.128;4.476;2022-08-18T04:01:50;891.43;;;798.93;;
16393;SDS011;8306;51.128;4.476;2022-08-18T04:04:18;859.93;;;770.07;;
16393;SDS011;8306;51.128;4.476;2022-08-18T04:06:44;968.43;;;862.50;;
16393;SDS011;8306;51.128;4.476;2022-08-18T04:09:10;958.27;;;852.07;;
16393;SDS011;8306;51.128;4.476;2022-08-18T04:11:35;911.17;;;818.43;;
16393;SDS011;8306;51.128;4.476;2022-08-18T04:14:02;994.23;;;866.97;;
16393;SDS011;8306;51.128;4.476;2022-08-18T04:16:28;847.87;;;762.63;;
16393;SDS011;8306;51.128;4.476;2022-08-18T04:18:54;907.97;;;813.17;;
16393;SDS011;8306;51.128;4.476;2022-08-18T04:21:21;960.97;;;856.83;;
16393;SDS011;8306;51.128;4.476;2022-08-18T04:23:47;1000.87;;;889.03;;
16393;SDS011;8306;51.128;4.476;2022-08-18T04:26:14;942.50;;;841.17;;
16393;SDS011;8306;51.128;4.476;2022-08-18T04:28:40;854.17;;;766.83;;
16393;SDS011;8306;51.128;4.476;2022-08-18T04:31:12;800.27;;;713.80;;
16393;SDS011;8306;51.128;4.476;2022-08-18T04:33:36;941.17;;;813.97;;
16393;SDS011;8306;51.128;4.476;2022-08-18T04:36:06;951.73;;;848.70;;
16393;SDS011;8306;51.128;4.476;2022-08-18T04:38:38;949.57;;;821.47;;
16393;SDS011;8306;51.128;4.476;2022-08-18T04:41:04;900.63;;;805.30;;
16393;SDS011;8306;51.128;4.476;2022-08-18T04:43:30;985.67;;;878.07;;
16393;SDS011;8306;51.128;4.476;2022-08-18T04:45:57;1045.57;;;877.07;;
16393;SDS011;8306;51.128;4.476;2022-08-18T04:48:23;883.53;;;790.13;;
16393;SDS011;8306;51.128;4.476;2022-08-18T04:50:50;964.37;;;859.03;;
16393;SDS011;8306;51.128;4.476;2022-08-18T04:53:16;991.80;;;887.23;;
16393;SDS011;8306;51.128;4.476;2022-08-18T04:56:01;984.10;;;878.40;;
16393;SDS011;8306;51.128;4.476;2022-08-18T04:58:28;1072.23;;;909.17;;
16393;SDS011;8306;51.128;4.476;2022-08-18T05:00:58;1034.90;;;874.20;;
16393;SDS011;8306;51.128;4.476;2022-08-18T05:03:21;1037.83;;;914.53;;
16393;SDS011;8306;51.128;4.476;2022-08-18T05:05:47;1029.97;;;905.20;;
16393;SDS011;8306;51.128;4.476;2022-08-18T05:08:14;975.17;;;868.37;;
16393;SDS011;8306;51.128;4.476;2022-08-18T05:10:40;1104.17;;;922.00;;
16393;SDS011;8306;51.128;4.476;2022-08-18T05:13:07;881.83;;;787.70;;
16393;SDS011;8306;51.128;4.476;2022-08-18T05:15:33;1163.60;;;935.20;;
16393;SDS011;8306;51.128;4.476;2022-08-18T05:18:00;1159.53;;;938.17;;
16393;SDS011;8306;51.128;4.476;2022-08-18T05:20:26;1235.53;;;966.63;;
16393;SDS011;8306;51.128;4.476;2022-08-18T05:22:53;1105.73;;;936.40;;
16393;SDS011;8306;51.128;4.476;2022-08-18T05:25:19;1441.50;;;999.90;;
16393;SDS011;8306;51.128;4.476;2022-08-18T05:27:46;1587.23;;;999.90;;
16393;SDS011;8306;51.128;4.476;2022-08-18T05:30:12;1633.73;;;999.90;;
16393;SDS011;8306;51.128;4.476;2022-08-18T05:32:42;1283.10;;;970.70;;
16393;SDS011;8306;51.128;4.476;2022-08-18T05:35:06;1280.27;;;994.40;;
16393;SDS011;8306;51.128;4.476;2022-08-18T05:37:34;1494.07;;;999.90;;
16393;SDS011;8306;51.128;4.476;2022-08-18T05:40:03;1621.87;;;999.90;;
16393;SDS011;8306;51.128;4.476;2022-08-18T05:42:29;1336.63;;;999.90;;
16393;SDS011;8306;51.128;4.476;2022-08-18T05:44:54;1330.77;;;997.37;;
16393;SDS011;8306;51.128;4.476;2022-08-18T05:49:54;1493.17;;;999.90;;
16393;SDS011;8306;51.128;4.476;2022-08-18T05:55:28;1473.67;;;999.90;;
16393;SDS011;8306;51.128;4.476;2022-08-18T05:58:19;1385.10;;;999.90;;
16393;SDS011;8306;51.128;4.476;2022-08-18T06:00:43;1251.93;;;972.83;;
16393;SDS011;8306;51.128;4.476;2022-08-18T06:03:13;1276.10;;;998.37;;
16393;SDS011;8306;51.128;4.476;2022-08-18T06:05:56;1338.47;;;999.90;;
16393;SDS011;8306;51.128;4.476;2022-08-18T06:08:21;1350.90;;;999.90;;
16393;SDS011;8306;51.128;4.476;2022-08-18T06:10:47;1268.10;;;999.90;;
16393;SDS011;8306;51.128;4.476;2022-08-18T06:13:13;1385.83;;;999.90;;
16393;SDS011;8306;51.128;4.476;2022-08-18T06:21:24;1178.97;;;969.37;;
16393;SDS011;8306;51.128;4.476;2022-08-18T06:26:58;1139.97;;;983.27;;
16393;SDS011;8306;51.128;4.476;2022-08-18T06:35:08;1085.97;;;972.67;;
16393;SDS011;8306;51.128;4.476;2022-08-18T06:37:32;1077.83;;;963.27;;
16393;SDS011;8306;51.128;4.476;2022-08-18T06:39:56;1202.27;;;999.90;;
16393;SDS011;8306;51.128;4.476;2022-08-18T06:42:23;1111.33;;;990.87;;
16393;SDS011;8306;51.128;4.476;2022-08-18T06:44:52;1347.43;;;999.90;;
16393;SDS011;8306;51.128;4.476;2022-08-18T06:47:29;1154.63;;;997.45;;
16393;SDS011;8306;51.128;4.476;2022-08-18T06:49:55;1083.82;;;967.45;;
16393;SDS011;8306;51.128;4.476;2022-08-18T06:53:06;1117.28;;;999.45;;
16393;SDS011;8306;51.128;4.476;2022-08-18T06:54:46;1082.50;;;971.30;;
16393;SDS011;8306;51.128;4.476;2022-08-18T06:57:23;1075.63;;;965.28;;
16393;SDS011;8306;51.128;4.476;2022-08-18T07:00:00;996.20;;;896.85;;
16393;SDS011;8306;51.128;4.476;2022-08-18T07:05:04;999.20;;;901.30;;
16393;SDS011;8306;51.128;4.476;2022-08-18T07:09:55;1017.90;;;916.85;;
16393;SDS011;8306;51.128;4.476;2022-08-18T07:12:23;1045.70;;;947.87;;
16393;SDS011;8306;51.128;4.476;2022-08-18T07:14:53;1049.93;;;947.60;;
16393;SDS011;8306;51.128;4.476;2022-08-18T07:17:22;956.80;;;872.25;;
16393;SDS011;8306;51.128;4.476;2022-08-18T07:19:45;969.88;;;880.00;;
16393;SDS011;8306;51.128;4.476;2022-08-18T07:22:12;987.75;;;899.30;;
16393;SDS011;8306;51.128;4.476;2022-08-18T07:24:42;952.25;;;870.25;;
16393;SDS011;8306;51.128;4.476;2022-08-18T07:27:11;1005.25;;;912.12;;
16393;SDS011;8306;51.128;4.476;2022-08-18T07:29:38;988.95;;;899.05;;
16393;SDS011;8306;51.128;4.476;2022-08-18T07:32:16;989.20;;;898.42;;
16393;SDS011;8306;51.128;4.476;2022-08-18T07:34:51;984.95;;;894.35;;
16393;SDS011;8306;51.128;4.476;2022-08-18T07:37:32;1007.33;;;912.88;;
16393;SDS011;8306;51.128;4.476;2022-08-18T07:42:46;1021.60;;;928.55;;
16393;SDS011;8306;51.128;4.476;2022-08-18T07:45:21;975.53;;;882.92;;
16393;SDS011;8306;51.128;4.476;2022-08-18T07:48:01;977.28;;;890.65;;
16393;SDS011;8306;51.128;4.476;2022-08-18T07:50:32;996.65;;;896.35;;
16393;SDS011;8306;51.128;4.476;2022-08-18T07:55:39;946.92;;;859.72;;
16393;SDS011;8306;51.128;4.476;2022-08-18T07:58:14;1005.47;;;908.22;;
16393;SDS011;8306;51.128;4.476;2022-08-18T08:06:01;1036.43;;;928.43;;
16393;SDS011;8306;51.128;4.476;2022-08-18T08:08:42;1145.30;;;985.50;;
16393;SDS011;8306;51.128;4.476;2022-08-18T08:11:19;1014.55;;;920.17;;
16393;SDS011;8306;51.128;4.476;2022-08-18T08:22:43;945.05;;;859.28;;
16393;SDS011;8306;51.128;4.476;2022-08-18T08:25:28;933.78;;;846.55;;
16393;SDS011;8306;51.128;4.476;2022-08-18T08:30:23;975.28;;;881.55;;
16393;SDS011;8306;51.128;4.476;2022-08-18T08:35:37;976.03;;;886.85;;
16393;SDS011;8306;51.128;4.476;2022-08-18T08:38:21;913.25;;;826.72;;
16393;SDS011;8306;51.128;4.476;2022-08-18T08:43:22;905.35;;;826.25;;
16393;SDS011;8306;51.128;4.476;2022-08-18T08:48:32;884.83;;;812.17;;
16393;SDS011;8306;51.128;4.476;2022-08-18T08:50:59;908.92;;;828.58;;
16393;SDS011;8306;51.128;4.476;2022-08-18T08:53:49;866.00;;;796.10;;
16393;SDS011;8306;51.128;4.476;2022-08-18T08:56:15;839.03;;;767.33;;
16393;SDS011;8306;51.128;4.476;2022-08-18T09:01:14;881.55;;;804.87;;
16393;SDS011;8306;51.128;4.476;2022-08-18T09:03:51;853.15;;;780.25;;
16393;SDS011;8306;51.128;4.476;2022-08-18T09:09:09;873.62;;;796.72;;
16393;SDS011;8306;51.128;4.476;2022-08-18T09:11:57;882.05;;;805.92;;
16393;SDS011;8306;51.128;4.476;2022-08-18T09:14:29;828.17;;;759.22;;
16393;SDS011;8306;51.128;4.476;2022-08-18T09:19:49;854.15;;;781.00;;
16393;SDS011;8306;51.128;4.476;2022-08-18T09:24:50;850.95;;;779.33;;
16393;SDS011;8306;51.128;4.476;2022-08-18T09:29:52;880.50;;;802.58;;
16393;SDS011;8306;51.128;4.476;2022-08-18T09:41:16;986.45;;;892.67;;
16393;SDS011;8306;51.128;4.476;2022-08-18T09:46:03;937.47;;;850.35;;
16393;SDS011;8306;51.128;4.476;2022-08-18T09:48:34;873.92;;;794.78;;
16393;SDS011;8306;51.128;4.476;2022-08-18T09:51:14;976.17;;;885.37;;
16393;SDS011;8306;51.128;4.476;2022-08-18T09:56:15;891.17;;;813.75;;
16393;SDS011;8306;51.128;4.476;2022-08-18T09:58:51;950.53;;;865.85;;
16393;SDS011;8306;51.128;4.476;2022-08-18T10:01:20;904.90;;;825.15;;
16393;SDS011;8306;51.128;4.476;2022-08-18T10:06:36;817.08;;;745.50;;
16393;SDS011;8306;51.128;4.476;2022-08-18T10:09:23;944.90;;;852.85;;
16393;SDS011;8306;51.128;4.476;2022-08-18T10:11:58;878.35;;;802.08;;
16393;SDS011;8306;51.128;4.476;2022-08-18T10:14:30;885.97;;;806.30;;
16393;SDS011;8306;51.128;4.476;2022-08-18T10:16:59;947.63;;;859.95;;
16393;SDS011;8306;51.128;4.476;2022-08-18T10:19:47;996.35;;;904.33;;
16393;SDS011;8306;51.128;4.476;2022-08-18T10:24:43;942.37;;;856.05;;
16393;SDS011;8306;51.128;4.476;2022-08-18T10:27:08;980.43;;;889.73;;
16393;SDS011;8306;51.128;4.476;2022-08-18T10:29:42;953.05;;;860.50;;
16393;SDS011;8306;51.128;4.476;2022-08-18T10:34:49;950.17;;;862.63;;
16393;SDS011;8306;51.128;4.476;2022-08-18T10:37:17;888.08;;;808.25;;
16393;SDS011;8306;51.128;4.476;2022-08-18T10:42:27;866.70;;;790.55;;
16393;SDS011;8306;51.128;4.476;2022-08-18T10:47:39;929.15;;;840.22;;
16393;SDS011;8306;51.128;4.476;2022-08-18T10:50:17;896.83;;;814.80;;
16393;SDS011;8306;51.128;4.476;2022-08-18T10:52:49;912.12;;;830.63;;
16393;SDS011;8306;51.128;4.476;2022-08-18T10:55:18;936.83;;;849.17;;
16393;SDS011;8306;51.128;4.476;2022-08-18T10:58:01;939.87;;;851.42;;
16393;SDS011;8306;51.128;4.476;2022-08-18T11:06:05;916.22;;;833.38;;
16393;SDS011;8306;51.128;4.476;2022-08-18T11:08:30;878.25;;;799.45;;
16393;SDS011;8306;51.128;4.476;2022-08-18T11:11:04;935.47;;;846.70;;
16393;SDS011;8306;51.128;4.476;2022-08-18T11:13:29;898.30;;;813.25;;
16393;SDS011;8306;51.128;4.476;2022-08-18T11:16:05;955.00;;;863.95;;
16393;SDS011;8306;51.128;4.476;2022-08-18T11:18:33;894.33;;;813.58;;
16393;SDS011;8306;51.128;4.476;2022-08-18T11:24:46;846.72;;;769.40;;
16393;SDS011;8306;51.128;4.476;2022-08-18T11:26:28;848.45;;;775.22;;
16393;SDS011;8306;51.128;4.476;2022-08-18T11:28:56;910.97;;;828.33;;
16393;SDS011;8306;51.128;4.476;2022-08-18T11:31:22;941.87;;;854.00;;
16393;SDS011;8306;51.128;4.476;2022-08-18T11:33:49;877.78;;;797.78;;
16393;SDS011;8306;51.128;4.476;2022-08-18T11:36:15;928.03;;;838.55;;
16393;SDS011;8306;51.128;4.476;2022-08-18T11:38:54;905.05;;;823.95;;
16393;SDS011;8306;51.128;4.476;2022-08-18T11:41:26;921.67;;;834.28;;
16393;SDS011;8306;51.128;4.476;2022-08-18T11:43:47;840.67;;;763.08;;
16393;SDS011;8306;51.128;4.476;2022-08-18T11:46:21;917.70;;;832.28;;
16393;SDS011;8306;51.128;4.476;2022-08-18T11:48:48;881.90;;;801.97;;
16393;SDS011;8306;51.128;4.476;2022-08-18T11:53:50;838.80;;;767.17;;
16393;SDS011;8306;51.128;4.476;2022-08-18T11:58:47;852.37;;;777.37;;
16393;SDS011;8306;51.128;4.476;2022-08-18T12:04:15;809.03;;;740.78;;
16393;SDS011;8306;51.128;4.476;2022-08-18T12:06:53;885.42;;;809.70;;
16393;SDS011;8306;51.128;4.476;2022-08-18T12:10:19;858.83;;;780.10;;
16393;SDS011;8306;51.128;4.476;2022-08-18T12:12:02;922.58;;;837.92;;
16393;SDS011;8306;51.128;4.476;2022-08-18T12:14:28;843.65;;;770.65;;
16393;SDS011;8306;51.128;4.476;2022-08-18T12:16:53;863.70;;;786.67;;
16393;SDS011;8306;51.128;4.476;2022-08-18T12:19:20;939.70;;;857.33;;
16393;SDS011;8306;51.128;4.476;2022-08-18T12:21:50;879.10;;;800.70;;
16393;SDS011;8306;51.128;4.476;2022-08-18T12:24:20;829.10;;;760.08;;
16393;SDS011;8306;51.128;4.476;2022-08-18T12:26:48;781.17;;;717.83;;
16393;SDS011;8306;51.128;4.476;2022-08-18T12:29:15;896.05;;;822.40;;
16393;SDS011;8306;51.128;4.476;2022-08-18T12:31:41;894.03;;;818.03;;
16393;SDS011;8306;51.128;4.476;2022-08-18T12:34:07;847.45;;;778.12;;
16393;SDS011;8306;51.128;4.476;2022-08-18T12:36:34;874.15;;;800.58;;
16393;SDS011;8306;51.128;4.476;2022-08-18T12:39:00;831.10;;;756.87;;
16393;SDS011;8306;51.128;4.476;2022-08-18T12:41:27;866.55;;;791.83;;
16393;SDS011;8306;51.128;4.476;2022-08-18T12:43:53;831.33;;;755.60;;
16393;SDS011;8306;51.128;4.476;2022-08-18T12:46:20;860.75;;;786.03;;
16393;SDS011;8306;51.128;4.476;2022-08-18T12:48:46;914.70;;;831.42;;
16393;SDS011;8306;51.128;4.476;2022-08-18T12:51:13;881.65;;;797.65;;
16393;SDS011;8306;51.128;4.476;2022-08-18T12:53:39;914.50;;;825.47;;
16393;SDS011;8306;51.128;4.476;2022-08-18T12:56:06;941.20;;;856.12;;
16393;SDS011;8306;51.128;4.476;2022-08-18T12:58:32;942.03;;;856.10;;
16393;SDS011;8306;51.128;4.476;2022-08-18T13:00:59;884.90;;;808.62;;
16393;SDS011;8306;51.128;4.476;2022-08-18T13:03:25;876.25;;;793.78;;
16393;SDS011;8306;51.128;4.476;2022-08-18T13:05:52;895.60;;;816.53;;
16393;SDS011;8306;51.128;4.476;2022-08-18T13:08:19;909.70;;;824.70;;
16393;SDS011;8306;51.128;4.476;2022-08-18T13:10:45;916.03;;;830.58;;
16393;SDS011;8306;51.128;4.476;2022-08-18T13:13:12;882.20;;;802.85;;
16393;SDS011;8306;51.128;4.476;2022-08-18T13:15:38;849.75;;;777.90;;
16393;SDS011;8306;51.128;4.476;2022-08-18T13:18:04;889.22;;;803.03;;
16393;SDS011;8306;51.128;4.476;2022-08-18T13:20:30;876.13;;;792.10;;
16393;SDS011;8306;51.128;4.476;2022-08-18T13:22:57;919.45;;;834.85;;
16393;SDS011;8306;51.128;4.476;2022-08-18T13:25:24;872.38;;;796.42;;
16393;SDS011;8306;51.128;4.476;2022-08-18T13:27:50;875.80;;;794.50;;
16393;SDS011;8306;51.128;4.476;2022-08-18T13:30:17;908.30;;;823.45;;
16393;SDS011;8306;51.128;4.476;2022-08-18T13:32:43;857.75;;;783.17;;
16393;SDS011;8306;51.128;4.476;2022-08-18T13:35:10;909.22;;;822.40;;
16393;SDS011;8306;51.128;4.476;2022-08-18T13:37:36;872.03;;;796.75;;
16393;SDS011;8306;51.128;4.476;2022-08-18T13:40:03;895.78;;;809.08;;
16393;SDS011;8306;51.128;4.476;2022-08-18T13:42:30;838.80;;;760.37;;
16393;SDS011;8306;51.128;4.476;2022-08-18T13:44:59;873.50;;;795.67;;
16393;SDS011;8306;51.128;4.476;2022-08-18T13:47:26;903.50;;;816.08;;
16393;SDS011;8306;51.128;4.476;2022-08-18T13:49:52;809.40;;;736.33;;
16393;SDS011;8306;51.128;4.476;2022-08-18T13:52:19;934.53;;;847.33;;
16393;SDS011;8306;51.128;4.476;2022-08-18T13:54:45;909.67;;;826.92;;
16393;SDS011;8306;51.128;4.476;2022-08-18T13:57:11;887.28;;;809.47;;
16393;SDS011;8306;51.128;4.476;2022-08-18T13:59:38;804.30;;;735.05;;
16393;SDS011;8306;51.128;4.476;2022-08-18T14:02:07;855.95;;;775.33;;
16393;SDS011;8306;51.128;4.476;2022-08-18T14:04:31;791.20;;;725.97;;
16393;SDS011;8306;51.128;4.476;2022-08-18T14:06:57;870.10;;;787.20;;
16393;SDS011;8306;51.128;4.476;2022-08-18T14:09:24;809.22;;;741.08;;
16393;SDS011;8306;51.128;4.476;2022-08-18T14:11:50;847.05;;;775.17;;
16393;SDS011;8306;51.128;4.476;2022-08-18T14:14:17;885.67;;;804.43;;
16393;SDS011;8306;51.128;4.476;2022-08-18T14:16:43;872.33;;;787.13;;
16393;SDS011;8306;51.128;4.476;2022-08-18T14:19:10;896.72;;;815.65;;
16393;SDS011;8306;51.128;4.476;2022-08-18T14:21:55;882.07;;;799.00;;
16393;SDS011;8306;51.128;4.476;2022-08-18T14:24:40;876.93;;;799.57;;
16393;SDS011;8306;51.128;4.476;2022-08-18T14:29:53;880.00;;;798.57;;
16393;SDS011;8306;51.128;4.476;2022-08-18T14:32:20;903.35;;;816.05;;
16393;SDS011;8306;51.128;4.476;2022-08-18T14:34:46;931.60;;;845.22;;
16393;SDS011;8306;51.128;4.476;2022-08-18T14:37:13;894.42;;;813.65;;
16393;SDS011;8306;51.128;4.476;2022-08-18T14:39:39;886.87;;;808.43;;
16393;SDS011;8306;51.128;4.476;2022-08-18T14:42:06;865.57;;;786.27;;
16393;SDS011;8306;51.128;4.476;2022-08-18T14:44:32;891.90;;;814.63;;
16393;SDS011;8306;51.128;4.476;2022-08-18T14:46:59;859.43;;;784.67;;
16393;SDS011;8306;51.128;4.476;2022-08-18T14:49:25;911.80;;;831.60;;
16393;SDS011;8306;51.128;4.476;2022-08-18T14:51:52;828.23;;;754.23;;
16393;SDS011;8306;51.128;4.476;2022-08-18T14:54:18;888.43;;;809.33;;
16393;SDS011;8306;51.128;4.476;2022-08-18T14:56:45;897.17;;;814.33;;
16393;SDS011;8306;51.128;4.476;2022-08-18T14:59:11;829.13;;;752.47;;
16393;SDS011;8306;51.128;4.476;2022-08-18T15:01:38;860.03;;;781.17;;
16393;SDS011;8306;51.128;4.476;2022-08-18T15:04:04;827.47;;;753.67;;
16393;SDS011;8306;51.128;4.476;2022-08-18T15:06:31;938.60;;;851.73;;
16393;SDS011;8306;51.128;4.476;2022-08-18T15:08:57;837.97;;;761.87;;
16393;SDS011;8306;51.128;4.476;2022-08-18T15:11:24;898.07;;;819.80;;
16393;SDS011;8306;51.128;4.476;2022-08-18T15:13:50;884.80;;;801.80;;
16393;SDS011;8306;51.128;4.476;2022-08-18T15:16:16;915.17;;;835.70;;
16393;SDS011;8306;51.128;4.476;2022-08-18T15:18:43;917.53;;;822.23;;
16393;SDS011;8306;51.128;4.476;2022-08-18T15:21:10;882.90;;;803.47;;
16393;SDS011;8306;51.128;4.476;2022-08-18T15:23:54;871.17;;;786.93;;
16393;SDS011;8306;51.128;4.476;2022-08-18T15:26:39;903.87;;;819.37;;
16393;SDS011;8306;51.128;4.476;2022-08-18T15:29:05;881.03;;;797.30;;
16393;SDS011;8306;51.128;4.476;2022-08-18T15:31:34;874.30;;;795.53;;
16393;SDS011;8306;51.128;4.476;2022-08-18T15:34:01;857.90;;;775.57;;
16393;SDS011;8306;51.128;4.476;2022-08-18T15:36:27;856.60;;;771.90;;
16393;SDS011;8306;51.128;4.476;2022-08-18T15:38:54;881.53;;;797.40;;
16393;SDS011;8306;51.128;4.476;2022-08-18T15:43:59;895.37;;;808.33;;
16393;SDS011;8306;51.128;4.476;2022-08-18T15:46:25;818.27;;;744.00;;
16393;SDS011;8306;51.128;4.476;2022-08-18T15:48:51;889.77;;;804.20;;
16393;SDS011;8306;51.128;4.476;2022-08-18T15:51:18;880.67;;;801.53;;
16393;SDS011;8306;51.128;4.476;2022-08-18T15:53:44;894.37;;;816.60;;
16393;SDS011;8306;51.128;4.476;2022-08-18T15:56:12;814.53;;;742.70;;
16393;SDS011;8306;51.128;4.476;2022-08-18T15:58:37;881.10;;;802.63;;
16393;SDS011;8306;51.128;4.476;2022-08-18T16:01:07;853.10;;;770.20;;
16393;SDS011;8306;51.128;4.476;2022-08-18T16:03:30;826.23;;;751.07;;
16393;SDS011;8306;51.128;4.476;2022-08-18T16:05:57;867.23;;;783.60;;
16393;SDS011;8306;51.128;4.476;2022-08-18T16:08:24;874.00;;;789.60;;
16393;SDS011;8306;51.128;4.476;2022-08-18T16:10:50;895.03;;;812.20;;